sensor_id;sensor_type;location;lat;lon;timestamp;temperature;humidity
37794;DHT22;23632;48.826;15.176;2023-08-24T00:02:02;32.70;61.10
37794;DHT22;23632;48.826;15.176;2023-08-24T00:04:29;32.70;61.00
37794;DHT22;23632;48.826;15.176;2023-08-24T00:06:56;32.80;61.10
37794;DHT22;23632;48.826;15.176;2023-08-24T00:09:23;32.80;61.20
37794;DHT22;23632;48.826;15.176;2023-08-24T00:11:51;32.70;61.10
37794;DHT22;23632;48.826;15.176;2023-08-24T00:14:19;32.80;61.30
37794;DHT22;23632;48.826;15.176;2023-08-24T00:16:46;32.70;61.20
37794;DHT22;23632;48.826;15.176;2023-08-24T00:19:13;32.70;61.20
37794;DHT22;23632;48.826;15.176;2023-08-24T00:21:40;32.70;61.20
37794;DHT22;23632;48.826;15.176;2023-08-24T00:24:07;32.70;61.20
37794;DHT22;23632;48.826;15.176;2023-08-24T00:26:34;32.70;61.20
37794;DHT22;23632;48.826;15.176;2023-08-24T00:29:01;32.70;61.30
37794;DHT22;23632;48.826;15.176;2023-08-24T00:31:28;32.70;61.30
37794;DHT22;23632;48.826;15.176;2023-08-24T00:33:55;32.70;61.30
37794;DHT22;23632;48.826;15.176;2023-08-24T00:36:24;32.70;61.40
37794;DHT22;23632;48.826;15.176;2023-08-24T00:38:52;32.70;61.30
37794;DHT22;23632;48.826;15.176;2023-08-24T00:41:20;32.70;61.30
37794;DHT22;23632;48.826;15.176;2023-08-24T00:43:48;32.70;61.40
37794;DHT22;23632;48.826;15.176;2023-08-24T00:46:17;32.60;61.40
37794;DHT22;23632;48.826;15.176;2023-08-24T00:48:47;32.60;61.30
37794;DHT22;23632;48.826;15.176;2023-08-24T00:51:14;32.60;61.40
37794;DHT22;23632;48.826;15.176;2023-08-24T00:53:41;32.60;61.40
37794;DHT22;23632;48.826;15.176;2023-08-24T00:56:08;32.50;61.30
37794;DHT22;23632;48.826;15.176;2023-08-24T00:58:36;32.60;61.40
37794;DHT22;23632;48.826;15.176;2023-08-24T01:01:04;32.60;61.40
37794;DHT22;23632;48.826;15.176;2023-08-24T01:03:32;32.60;61.40
37794;DHT22;23632;48.826;15.176;2023-08-24T01:05:59;32.60;61.50
37794;DHT22;23632;48.826;15.176;2023-08-24T01:08:26;32.60;61.50
37794;DHT22;23632;48.826;15.176;2023-08-24T01:11:14;32.50;61.50
37794;DHT22;23632;48.826;15.176;2023-08-24T01:14:04;32.50;61.50
37794;DHT22;23632;48.826;15.176;2023-08-24T01:16:35;32.50;61.60
37794;DHT22;23632;48.826;15.176;2023-08-24T01:19:21;32.50;62.50
37794;DHT22;23632;48.826;15.176;2023-08-24T01:21:53;32.50;61.50
37794;DHT22;23632;48.826;15.176;2023-08-24T01:24:38;32.50;61.60
37794;DHT22;23632;48.826;15.176;2023-08-24T01:27:08;32.50;61.60
37794;DHT22;23632;48.826;15.176;2023-08-24T01:29:38;32.40;61.60
37794;DHT22;23632;48.826;15.176;2023-08-24T01:32:10;32.50;61.70
37794;DHT22;23632;48.826;15.176;2023-08-24T01:34:38;32.40;61.70
37794;DHT22;23632;48.826;15.176;2023-08-24T01:37:06;32.40;61.60
37794;DHT22;23632;48.826;15.176;2023-08-24T01:42:55;32.40;61.70
37794;DHT22;23632;48.826;15.176;2023-08-24T01:45:28;32.40;61.70
37794;DHT22;23632;48.826;15.176;2023-08-24T01:47:57;32.40;61.70
37794;DHT22;23632;48.826;15.176;2023-08-24T01:50:26;32.40;61.70
37794;DHT22;23632;48.826;15.176;2023-08-24T01:52:53;32.30;61.70
37794;DHT22;23632;48.826;15.176;2023-08-24T01:55:21;32.30;61.70
37794;DHT22;23632;48.826;15.176;2023-08-24T01:57:48;32.30;61.80
37794;DHT22;23632;48.826;15.176;2023-08-24T02:00:16;32.30;61.80
37794;DHT22;23632;48.826;15.176;2023-08-24T02:02:46;32.30;61.80
37794;DHT22;23632;48.826;15.176;2023-08-24T02:05:14;32.30;61.80
37794;DHT22;23632;48.826;15.176;2023-08-24T02:07:41;32.30;61.80
37794;DHT22;23632;48.826;15.176;2023-08-24T02:10:08;32.30;61.90
37794;DHT22;23632;48.826;15.176;2023-08-24T02:12:35;32.30;61.80
37794;DHT22;23632;48.826;15.176;2023-08-24T02:15:02;32.30;61.90
37794;DHT22;23632;48.826;15.176;2023-08-24T02:17:30;32.30;61.90
37794;DHT22;23632;48.826;15.176;2023-08-24T02:19:57;32.30;61.80
37794;DHT22;23632;48.826;15.176;2023-08-24T02:22:24;32.30;61.80
37794;DHT22;23632;48.826;15.176;2023-08-24T02:24:51;32.30;61.90
37794;DHT22;23632;48.826;15.176;2023-08-24T02:27:18;32.20;61.90
37794;DHT22;23632;48.826;15.176;2023-08-24T02:29:45;32.20;61.90
37794;DHT22;23632;48.826;15.176;2023-08-24T02:32:15;32.30;61.90
37794;DHT22;23632;48.826;15.176;2023-08-24T02:34:42;32.20;61.90
37794;DHT22;23632;48.826;15.176;2023-08-24T02:37:09;32.20;61.90
37794;DHT22;23632;48.826;15.176;2023-08-24T02:39:37;32.20;61.90
37794;DHT22;23632;48.826;15.176;2023-08-24T02:42:04;32.20;62.00
37794;DHT22;23632;48.826;15.176;2023-08-24T02:44:31;32.20;61.90
37794;DHT22;23632;48.826;15.176;2023-08-24T02:46:58;32.20;61.90
37794;DHT22;23632;48.826;15.176;2023-08-24T02:49:25;32.20;62.00
37794;DHT22;23632;48.826;15.176;2023-08-24T02:51:52;32.20;62.90
37794;DHT22;23632;48.826;15.176;2023-08-24T02:54:19;32.20;62.00
37794;DHT22;23632;48.826;15.176;2023-08-24T02:56:48;32.10;61.90
37794;DHT22;23632;48.826;15.176;2023-08-24T02:59:15;32.20;62.10
37794;DHT22;23632;48.826;15.176;2023-08-24T03:01:42;32.10;61.90
37794;DHT22;23632;48.826;15.176;2023-08-24T03:04:10;32.10;62.00
37794;DHT22;23632;48.826;15.176;2023-08-24T03:06:37;32.10;61.90
37794;DHT22;23632;48.826;15.176;2023-08-24T03:09:04;32.10;62.10
37794;DHT22;23632;48.826;15.176;2023-08-24T03:11:31;32.10;62.10
37794;DHT22;23632;48.826;15.176;2023-08-24T03:13:58;32.10;62.10
37794;DHT22;23632;48.826;15.176;2023-08-24T03:16:26;32.10;62.10
37794;DHT22;23632;48.826;15.176;2023-08-24T03:18:53;32.10;62.10
37794;DHT22;23632;48.826;15.176;2023-08-24T03:21:21;32.10;62.10
37794;DHT22;23632;48.826;15.176;2023-08-24T03:23:48;32.10;62.10
37794;DHT22;23632;48.826;15.176;2023-08-24T03:26:15;32.10;62.10
37794;DHT22;23632;48.826;15.176;2023-08-24T03:28:43;32.00;62.10
37794;DHT22;23632;48.826;15.176;2023-08-24T03:31:10;32.00;62.20
37794;DHT22;23632;48.826;15.176;2023-08-24T03:33:37;32.00;62.10
37794;DHT22;23632;48.826;15.176;2023-08-24T03:36:05;32.00;62.20
37794;DHT22;23632;48.826;15.176;2023-08-24T03:38:32;32.00;62.10
37794;DHT22;23632;48.826;15.176;2023-08-24T03:41:00;32.00;62.20
37794;DHT22;23632;48.826;15.176;2023-08-24T03:43:32;32.00;62.20
37794;DHT22;23632;48.826;15.176;2023-08-24T03:46:04;32.00;62.20
37794;DHT22;23632;48.826;15.176;2023-08-24T03:48:32;32.00;62.20
37794;DHT22;23632;48.826;15.176;2023-08-24T03:50:59;32.00;62.20
37794;DHT22;23632;48.826;15.176;2023-08-24T03:53:28;32.00;62.20
37794;DHT22;23632;48.826;15.176;2023-08-24T03:55:55;32.00;62.30
37794;DHT22;23632;48.826;15.176;2023-08-24T03:58:22;32.00;62.30
37794;DHT22;23632;48.826;15.176;2023-08-24T04:00:51;32.00;62.30
37794;DHT22;23632;48.826;15.176;2023-08-24T04:03:18;32.00;62.30
37794;DHT22;23632;48.826;15.176;2023-08-24T04:05:45;32.00;62.30
37794;DHT22;23632;48.826;15.176;2023-08-24T04:08:12;32.00;62.30
37794;DHT22;23632;48.826;15.176;2023-08-24T04:10:39;31.90;62.30
37794;DHT22;23632;48.826;15.176;2023-08-24T04:13:06;31.90;62.30
37794;DHT22;23632;48.826;15.176;2023-08-24T04:15:35;31.90;62.30
37794;DHT22;23632;48.826;15.176;2023-08-24T04:18:03;31.90;62.30
37794;DHT22;23632;48.826;15.176;2023-08-24T04:20:30;31.90;62.40
37794;DHT22;23632;48.826;15.176;2023-08-24T04:22:58;31.90;62.30
37794;DHT22;23632;48.826;15.176;2023-08-24T04:25:25;31.90;63.20
37794;DHT22;23632;48.826;15.176;2023-08-24T04:27:52;31.90;62.40
37794;DHT22;23632;48.826;15.176;2023-08-24T04:30:19;31.90;62.30
37794;DHT22;23632;48.826;15.176;2023-08-24T04:32:46;31.90;62.30
37794;DHT22;23632;48.826;15.176;2023-08-24T04:35:14;31.90;62.30
37794;DHT22;23632;48.826;15.176;2023-08-24T04:37:41;31.90;62.40
37794;DHT22;23632;48.826;15.176;2023-08-24T04:40:08;31.90;62.50
37794;DHT22;23632;48.826;15.176;2023-08-24T04:42:36;31.80;62.30
37794;DHT22;23632;48.826;15.176;2023-08-24T04:45:03;31.80;62.30
37794;DHT22;23632;48.826;15.176;2023-08-24T04:47:31;31.80;62.40
37794;DHT22;23632;48.826;15.176;2023-08-24T04:49:58;31.80;62.40
37794;DHT22;23632;48.826;15.176;2023-08-24T04:52:25;31.80;62.50
37794;DHT22;23632;48.826;15.176;2023-08-24T04:54:52;31.80;62.40
37794;DHT22;23632;48.826;15.176;2023-08-24T04:57:19;31.80;62.40
37794;DHT22;23632;48.826;15.176;2023-08-24T04:59:46;31.80;62.50
37794;DHT22;23632;48.826;15.176;2023-08-24T05:02:13;31.80;62.50
37794;DHT22;23632;48.826;15.176;2023-08-24T05:04:40;31.80;62.50
37794;DHT22;23632;48.826;15.176;2023-08-24T05:07:07;31.80;62.50
37794;DHT22;23632;48.826;15.176;2023-08-24T05:09:35;31.80;62.50
37794;DHT22;23632;48.826;15.176;2023-08-24T05:12:02;31.80;62.50
37794;DHT22;23632;48.826;15.176;2023-08-24T05:14:29;31.80;62.50
37794;DHT22;23632;48.826;15.176;2023-08-24T05:16:56;31.80;62.60
37794;DHT22;23632;48.826;15.176;2023-08-24T05:19:23;31.80;62.60
37794;DHT22;23632;48.826;15.176;2023-08-24T05:21:50;31.80;62.50
37794;DHT22;23632;48.826;15.176;2023-08-24T05:24:17;31.80;62.60
37794;DHT22;23632;48.826;15.176;2023-08-24T05:26:44;31.80;62.60
37794;DHT22;23632;48.826;15.176;2023-08-24T05:29:11;31.80;62.60
37794;DHT22;23632;48.826;15.176;2023-08-24T05:31:39;31.80;62.70
37794;DHT22;23632;48.826;15.176;2023-08-24T05:34:06;31.80;62.70
37794;DHT22;23632;48.826;15.176;2023-08-24T05:36:33;31.80;62.70
37794;DHT22;23632;48.826;15.176;2023-08-24T05:39:00;31.80;62.60
37794;DHT22;23632;48.826;15.176;2023-08-24T05:41:32;31.80;62.60
37794;DHT22;23632;48.826;15.176;2023-08-24T05:44:00;31.80;62.70
37794;DHT22;23632;48.826;15.176;2023-08-24T05:46:27;31.80;62.70
37794;DHT22;23632;48.826;15.176;2023-08-24T05:48:57;31.80;62.60
37794;DHT22;23632;48.826;15.176;2023-08-24T05:51:25;31.80;62.70
37794;DHT22;23632;48.826;15.176;2023-08-24T05:53:53;31.80;62.70
37794;DHT22;23632;48.826;15.176;2023-08-24T05:56:22;31.80;62.70
37794;DHT22;23632;48.826;15.176;2023-08-24T05:58:49;31.70;62.70
37794;DHT22;23632;48.826;15.176;2023-08-24T06:01:17;31.80;62.70
37794;DHT22;23632;48.826;15.176;2023-08-24T06:03:44;31.80;62.70
37794;DHT22;23632;48.826;15.176;2023-08-24T06:06:11;31.80;62.80
37794;DHT22;23632;48.826;15.176;2023-08-24T06:08:38;31.80;62.70
37794;DHT22;23632;48.826;15.176;2023-08-24T06:11:05;31.80;62.80
37794;DHT22;23632;48.826;15.176;2023-08-24T06:13:33;31.80;62.80
37794;DHT22;23632;48.826;15.176;2023-08-24T06:16:00;31.80;62.80
37794;DHT22;23632;48.826;15.176;2023-08-24T06:18:28;31.80;62.70
37794;DHT22;23632;48.826;15.176;2023-08-24T06:20:55;31.80;62.70
37794;DHT22;23632;48.826;15.176;2023-08-24T06:23:22;31.80;62.80
37794;DHT22;23632;48.826;15.176;2023-08-24T06:25:49;31.80;62.80
37794;DHT22;23632;48.826;15.176;2023-08-24T06:28:16;31.80;62.80
37794;DHT22;23632;48.826;15.176;2023-08-24T06:30:43;31.80;62.80
37794;DHT22;23632;48.826;15.176;2023-08-24T06:33:12;31.80;62.80
37794;DHT22;23632;48.826;15.176;2023-08-24T06:35:40;31.80;62.80
37794;DHT22;23632;48.826;15.176;2023-08-24T06:38:07;31.80;62.80
37794;DHT22;23632;48.826;15.176;2023-08-24T06:40:34;31.80;62.80
37794;DHT22;23632;48.826;15.176;2023-08-24T06:43:01;31.80;62.80
37794;DHT22;23632;48.826;15.176;2023-08-24T06:45:29;31.80;62.80
37794;DHT22;23632;48.826;15.176;2023-08-24T06:47:55;31.80;62.90
37794;DHT22;23632;48.826;15.176;2023-08-24T06:50:23;31.80;62.80
37794;DHT22;23632;48.826;15.176;2023-08-24T06:52:50;31.80;62.90
37794;DHT22;23632;48.826;15.176;2023-08-24T06:55:17;31.80;62.90
37794;DHT22;23632;48.826;15.176;2023-08-24T06:57:48;31.80;62.90
37794;DHT22;23632;48.826;15.176;2023-08-24T07:00:19;31.80;63.00
37794;DHT22;23632;48.826;15.176;2023-08-24T07:02:51;31.80;63.00
37794;DHT22;23632;48.826;15.176;2023-08-24T07:05:18;31.80;62.90
37794;DHT22;23632;48.826;15.176;2023-08-24T07:07:46;31.80;62.90
37794;DHT22;23632;48.826;15.176;2023-08-24T07:10:14;31.80;62.90
37794;DHT22;23632;48.826;15.176;2023-08-24T07:12:41;31.90;63.00
37794;DHT22;23632;48.826;15.176;2023-08-24T07:15:09;31.80;62.90
37794;DHT22;23632;48.826;15.176;2023-08-24T07:17:36;31.90;63.10
37794;DHT22;23632;48.826;15.176;2023-08-24T07:20:04;31.90;63.00
37794;DHT22;23632;48.826;15.176;2023-08-24T07:22:36;31.90;63.00
37794;DHT22;23632;48.826;15.176;2023-08-24T07:25:04;31.90;63.00
37794;DHT22;23632;48.826;15.176;2023-08-24T07:27:33;31.90;63.00
37794;DHT22;23632;48.826;15.176;2023-08-24T07:30:01;31.90;63.90
37794;DHT22;23632;48.826;15.176;2023-08-24T07:32:52;31.90;63.00
37794;DHT22;23632;48.826;15.176;2023-08-24T07:35:20;31.90;62.90
37794;DHT22;23632;48.826;15.176;2023-08-24T07:37:48;31.90;63.00
37794;DHT22;23632;48.826;15.176;2023-08-24T07:40:16;31.90;63.10
37794;DHT22;23632;48.826;15.176;2023-08-24T07:42:50;31.90;63.00
37794;DHT22;23632;48.826;15.176;2023-08-24T07:45:20;31.90;63.10
37794;DHT22;23632;48.826;15.176;2023-08-24T07:47:47;31.90;63.10
37794;DHT22;23632;48.826;15.176;2023-08-24T07:50:15;32.00;63.10
37794;DHT22;23632;48.826;15.176;2023-08-24T07:52:42;32.00;63.10
37794;DHT22;23632;48.826;15.176;2023-08-24T07:55:09;32.00;63.10
37794;DHT22;23632;48.826;15.176;2023-08-24T07:57:37;32.00;63.20
37794;DHT22;23632;48.826;15.176;2023-08-24T08:00:05;32.00;63.10
37794;DHT22;23632;48.826;15.176;2023-08-24T08:02:41;32.00;63.10
37794;DHT22;23632;48.826;15.176;2023-08-24T08:05:08;32.00;63.20
37794;DHT22;23632;48.826;15.176;2023-08-24T08:07:39;32.00;63.10
37794;DHT22;23632;48.826;15.176;2023-08-24T08:10:06;32.00;63.10
37794;DHT22;23632;48.826;15.176;2023-08-24T08:12:34;32.00;63.10
37794;DHT22;23632;48.826;15.176;2023-08-24T08:15:02;32.00;63.10
37794;DHT22;23632;48.826;15.176;2023-08-24T08:17:29;32.00;63.10
37794;DHT22;23632;48.826;15.176;2023-08-24T08:19:58;32.00;63.10
37794;DHT22;23632;48.826;15.176;2023-08-24T08:22:25;32.00;63.10
37794;DHT22;23632;48.826;15.176;2023-08-24T08:24:52;32.10;63.10
37794;DHT22;23632;48.826;15.176;2023-08-24T08:27:21;32.00;63.10
37794;DHT22;23632;48.826;15.176;2023-08-24T08:29:50;32.10;63.20
37794;DHT22;23632;48.826;15.176;2023-08-24T08:32:17;32.10;63.10
37794;DHT22;23632;48.826;15.176;2023-08-24T08:34:44;32.10;63.10
37794;DHT22;23632;48.826;15.176;2023-08-24T08:37:12;32.10;63.10
37794;DHT22;23632;48.826;15.176;2023-08-24T08:39:38;32.10;63.10
37794;DHT22;23632;48.826;15.176;2023-08-24T08:42:11;32.10;63.10
37794;DHT22;23632;48.826;15.176;2023-08-24T08:44:41;32.10;63.10
37794;DHT22;23632;48.826;15.176;2023-08-24T08:47:11;32.10;63.10
37794;DHT22;23632;48.826;15.176;2023-08-24T08:49:45;32.10;63.10
37794;DHT22;23632;48.826;15.176;2023-08-24T08:52:15;32.20;63.20
37794;DHT22;23632;48.826;15.176;2023-08-24T08:54:42;32.10;63.10
37794;DHT22;23632;48.826;15.176;2023-08-24T08:57:10;32.20;63.10
37794;DHT22;23632;48.826;15.176;2023-08-24T08:59:37;32.10;63.10
37794;DHT22;23632;48.826;15.176;2023-08-24T09:02:05;32.10;63.10
37794;DHT22;23632;48.826;15.176;2023-08-24T09:04:33;32.10;63.00
37794;DHT22;23632;48.826;15.176;2023-08-24T09:07:00;32.20;63.20
37794;DHT22;23632;48.826;15.176;2023-08-24T09:09:31;32.20;63.10
37794;DHT22;23632;48.826;15.176;2023-08-24T09:12:00;32.20;63.10
37794;DHT22;23632;48.826;15.176;2023-08-24T09:14:27;32.20;63.10
37794;DHT22;23632;48.826;15.176;2023-08-24T09:16:54;32.20;63.10
37794;DHT22;23632;48.826;15.176;2023-08-24T09:19:28;32.20;63.10
37794;DHT22;23632;48.826;15.176;2023-08-24T09:22:01;32.20;63.10
37794;DHT22;23632;48.826;15.176;2023-08-24T09:24:38;32.30;63.10
37794;DHT22;23632;48.826;15.176;2023-08-24T09:27:15;32.30;63.10
37794;DHT22;23632;48.826;15.176;2023-08-24T09:29:49;32.30;63.10
37794;DHT22;23632;48.826;15.176;2023-08-24T09:32:22;32.30;63.10
37794;DHT22;23632;48.826;15.176;2023-08-24T09:34:50;32.30;63.10
37794;DHT22;23632;48.826;15.176;2023-08-24T09:37:18;32.30;63.10
37794;DHT22;23632;48.826;15.176;2023-08-24T09:39:46;32.30;63.10
37794;DHT22;23632;48.826;15.176;2023-08-24T09:42:14;32.30;64.10
37794;DHT22;23632;48.826;15.176;2023-08-24T09:44:44;32.30;63.10
37794;DHT22;23632;48.826;15.176;2023-08-24T09:47:15;32.30;63.20
37794;DHT22;23632;48.826;15.176;2023-08-24T09:49:42;32.30;63.10
37794;DHT22;23632;48.826;15.176;2023-08-24T09:52:09;32.30;63.10
37794;DHT22;23632;48.826;15.176;2023-08-24T09:54:37;32.30;63.10
37794;DHT22;23632;48.826;15.176;2023-08-24T09:57:09;32.40;64.00
37794;DHT22;23632;48.826;15.176;2023-08-24T09:59:39;32.40;63.10
37794;DHT22;23632;48.826;15.176;2023-08-24T10:02:20;32.40;63.20
37794;DHT22;23632;48.826;15.176;2023-08-24T10:04:50;32.40;63.10
37794;DHT22;23632;48.826;15.176;2023-08-24T10:07:20;32.40;63.10
37794;DHT22;23632;48.826;15.176;2023-08-24T10:10:03;32.40;63.10
37794;DHT22;23632;48.826;15.176;2023-08-24T10:12:36;32.40;63.00
37794;DHT22;23632;48.826;15.176;2023-08-24T10:15:07;32.40;63.10
37794;DHT22;23632;48.826;15.176;2023-08-24T10:17:37;32.40;63.00
37794;DHT22;23632;48.826;15.176;2023-08-24T10:20:07;32.40;63.00
37794;DHT22;23632;48.826;15.176;2023-08-24T10:22:38;32.40;63.00
37794;DHT22;23632;48.826;15.176;2023-08-24T10:25:07;32.50;63.10
37794;DHT22;23632;48.826;15.176;2023-08-24T10:27:39;32.40;63.00
37794;DHT22;23632;48.826;15.176;2023-08-24T10:30:14;32.40;63.00
37794;DHT22;23632;48.826;15.176;2023-08-24T10:32:43;32.50;63.10
37794;DHT22;23632;48.826;15.176;2023-08-24T10:35:12;32.50;63.10
37794;DHT22;23632;48.826;15.176;2023-08-24T10:37:44;32.50;63.10
37794;DHT22;23632;48.826;15.176;2023-08-24T10:40:13;32.50;63.10
37794;DHT22;23632;48.826;15.176;2023-08-24T10:42:44;32.50;63.10
37794;DHT22;23632;48.826;15.176;2023-08-24T10:45:13;32.50;63.10
37794;DHT22;23632;48.826;15.176;2023-08-24T10:47:45;32.60;63.20
37794;DHT22;23632;48.826;15.176;2023-08-24T10:50:14;32.50;63.10
37794;DHT22;23632;48.826;15.176;2023-08-24T10:52:44;32.60;63.10
37794;DHT22;23632;48.826;15.176;2023-08-24T10:55:27;32.60;63.00
37794;DHT22;23632;48.826;15.176;2023-08-24T10:57:58;32.60;63.00
37794;DHT22;23632;48.826;15.176;2023-08-24T11:00:28;32.60;63.00
37794;DHT22;23632;48.826;15.176;2023-08-24T11:02:56;32.70;63.90
37794;DHT22;23632;48.826;15.176;2023-08-24T11:05:31;32.70;63.00
37794;DHT22;23632;48.826;15.176;2023-08-24T11:08:04;32.70;63.10
37794;DHT22;23632;48.826;15.176;2023-08-24T11:13:15;32.70;63.00
37794;DHT22;23632;48.826;15.176;2023-08-24T11:15:45;32.70;63.00
37794;DHT22;23632;48.826;15.176;2023-08-24T11:18:24;32.70;63.90
37794;DHT22;23632;48.826;15.176;2023-08-24T11:20:54;32.70;63.00
37794;DHT22;23632;48.826;15.176;2023-08-24T11:23:24;32.70;62.90
37794;DHT22;23632;48.826;15.176;2023-08-24T11:25:53;32.70;62.90
37794;DHT22;23632;48.826;15.176;2023-08-24T11:28:26;32.70;63.00
37794;DHT22;23632;48.826;15.176;2023-08-24T11:30:55;32.70;62.90
37794;DHT22;23632;48.826;15.176;2023-08-24T11:33:41;32.70;62.90
37794;DHT22;23632;48.826;15.176;2023-08-24T11:36:09;32.80;63.00
37794;DHT22;23632;48.826;15.176;2023-08-24T11:38:40;32.80;63.00
37794;DHT22;23632;48.826;15.176;2023-08-24T11:41:15;32.80;62.90
37794;DHT22;23632;48.826;15.176;2023-08-24T11:43:45;32.80;62.80
37794;DHT22;23632;48.826;15.176;2023-08-24T11:46:18;32.90;62.90
37794;DHT22;23632;48.826;15.176;2023-08-24T11:48:46;32.80;62.80
37794;DHT22;23632;48.826;15.176;2023-08-24T11:51:13;32.80;62.80
37794;DHT22;23632;48.826;15.176;2023-08-24T11:53:45;32.80;62.80
37794;DHT22;23632;48.826;15.176;2023-08-24T11:56:14;32.90;62.90
37794;DHT22;23632;48.826;15.176;2023-08-24T11:58:42;32.90;62.90
37794;DHT22;23632;48.826;15.176;2023-08-24T12:01:11;32.90;62.80
37794;DHT22;23632;48.826;15.176;2023-08-24T12:03:39;33.00;62.80
37794;DHT22;23632;48.826;15.176;2023-08-24T12:06:14;32.90;62.80
37794;DHT22;23632;48.826;15.176;2023-08-24T12:08:46;32.90;62.70
37794;DHT22;23632;48.826;15.176;2023-08-24T12:11:20;32.90;62.80
37794;DHT22;23632;48.826;15.176;2023-08-24T12:13:53;33.00;62.80
37794;DHT22;23632;48.826;15.176;2023-08-24T12:16:22;33.00;62.80
37794;DHT22;23632;48.826;15.176;2023-08-24T12:18:54;33.00;62.80
37794;DHT22;23632;48.826;15.176;2023-08-24T12:21:22;33.00;63.70
37794;DHT22;23632;48.826;15.176;2023-08-24T12:26:25;33.00;62.70
37794;DHT22;23632;48.826;15.176;2023-08-24T12:28:55;33.00;62.70
37794;DHT22;23632;48.826;15.176;2023-08-24T12:31:26;33.00;62.70
37794;DHT22;23632;48.826;15.176;2023-08-24T12:34:05;33.10;62.70
37794;DHT22;23632;48.826;15.176;2023-08-24T12:36:35;33.10;62.60
37794;DHT22;23632;48.826;15.176;2023-08-24T12:39:04;33.10;62.70
37794;DHT22;23632;48.826;15.176;2023-08-24T12:41:32;33.10;62.70
37794;DHT22;23632;48.826;15.176;2023-08-24T12:43:59;33.10;62.70
37794;DHT22;23632;48.826;15.176;2023-08-24T12:46:35;33.10;62.60
37794;DHT22;23632;48.826;15.176;2023-08-24T12:49:02;33.10;62.60
37794;DHT22;23632;48.826;15.176;2023-08-24T12:51:30;33.20;62.60
37794;DHT22;23632;48.826;15.176;2023-08-24T12:53:57;33.20;62.70
37794;DHT22;23632;48.826;15.176;2023-08-24T12:56:24;33.20;62.60
37794;DHT22;23632;48.826;15.176;2023-08-24T12:58:51;33.20;62.60
37794;DHT22;23632;48.826;15.176;2023-08-24T13:01:18;33.20;62.60
37794;DHT22;23632;48.826;15.176;2023-08-24T13:03:46;33.30;62.70
37794;DHT22;23632;48.826;15.176;2023-08-24T13:06:13;33.30;62.60
37794;DHT22;23632;48.826;15.176;2023-08-24T13:08:54;33.30;62.60
37794;DHT22;23632;48.826;15.176;2023-08-24T13:11:21;33.40;62.60
37794;DHT22;23632;48.826;15.176;2023-08-24T13:13:49;33.40;62.50
37794;DHT22;23632;48.826;15.176;2023-08-24T13:16:16;33.50;62.50
37794;DHT22;23632;48.826;15.176;2023-08-24T13:18:44;33.50;62.30
37794;DHT22;23632;48.826;15.176;2023-08-24T13:21:11;33.60;62.40
37794;DHT22;23632;48.826;15.176;2023-08-24T13:23:38;33.60;62.30
37794;DHT22;23632;48.826;15.176;2023-08-24T13:26:05;33.70;62.30
37794;DHT22;23632;48.826;15.176;2023-08-24T13:28:33;33.70;62.30
37794;DHT22;23632;48.826;15.176;2023-08-24T13:31:00;33.70;62.20
37794;DHT22;23632;48.826;15.176;2023-08-24T13:33:27;33.80;62.10
37794;DHT22;23632;48.826;15.176;2023-08-24T13:35:54;33.80;62.10
37794;DHT22;23632;48.826;15.176;2023-08-24T13:38:22;33.90;62.10
37794;DHT22;23632;48.826;15.176;2023-08-24T13:40:49;33.90;62.00
37794;DHT22;23632;48.826;15.176;2023-08-24T13:43:16;33.90;61.90
37794;DHT22;23632;48.826;15.176;2023-08-24T13:45:43;34.00;61.90
37794;DHT22;23632;48.826;15.176;2023-08-24T13:48:11;34.00;61.80
37794;DHT22;23632;48.826;15.176;2023-08-24T13:50:38;34.10;61.80
37794;DHT22;23632;48.826;15.176;2023-08-24T13:53:05;34.10;61.70
37794;DHT22;23632;48.826;15.176;2023-08-24T13:55:32;34.20;61.70
37794;DHT22;23632;48.826;15.176;2023-08-24T13:57:59;34.20;61.70
37794;DHT22;23632;48.826;15.176;2023-08-24T14:00:26;34.30;61.70
37794;DHT22;23632;48.826;15.176;2023-08-24T14:02:54;34.30;61.50
37794;DHT22;23632;48.826;15.176;2023-08-24T14:05:22;34.30;61.50
37794;DHT22;23632;48.826;15.176;2023-08-24T14:07:50;34.40;61.50
37794;DHT22;23632;48.826;15.176;2023-08-24T14:10:18;34.40;61.40
37794;DHT22;23632;48.826;15.176;2023-08-24T14:12:46;34.40;61.30
37794;DHT22;23632;48.826;15.176;2023-08-24T14:15:13;34.50;61.30
37794;DHT22;23632;48.826;15.176;2023-08-24T14:17:40;34.50;61.30
37794;DHT22;23632;48.826;15.176;2023-08-24T14:20:08;34.50;61.10
37794;DHT22;23632;48.826;15.176;2023-08-24T14:22:35;34.60;61.20
37794;DHT22;23632;48.826;15.176;2023-08-24T14:25:03;34.60;61.20
37794;DHT22;23632;48.826;15.176;2023-08-24T14:27:30;34.60;61.00
37794;DHT22;23632;48.826;15.176;2023-08-24T14:29:57;34.60;61.90
37794;DHT22;23632;48.826;15.176;2023-08-24T14:32:24;34.70;61.80
37794;DHT22;23632;48.826;15.176;2023-08-24T14:34:51;34.70;60.90
37794;DHT22;23632;48.826;15.176;2023-08-24T14:37:18;34.70;60.90
37794;DHT22;23632;48.826;15.176;2023-08-24T14:39:46;34.80;61.80
37794;DHT22;23632;48.826;15.176;2023-08-24T14:42:13;34.80;60.80
37794;DHT22;23632;48.826;15.176;2023-08-24T14:44:40;34.80;60.70
37794;DHT22;23632;48.826;15.176;2023-08-24T14:47:07;34.80;60.70
37794;DHT22;23632;48.826;15.176;2023-08-24T14:49:34;34.90;60.60
37794;DHT22;23632;48.826;15.176;2023-08-24T14:52:01;34.90;60.60
37794;DHT22;23632;48.826;15.176;2023-08-24T14:54:28;34.90;60.60
37794;DHT22;23632;48.826;15.176;2023-08-24T14:56:55;35.00;60.50
37794;DHT22;23632;48.826;15.176;2023-08-24T14:59:23;35.00;60.50
37794;DHT22;23632;48.826;15.176;2023-08-24T15:01:50;35.00;60.30
37794;DHT22;23632;48.826;15.176;2023-08-24T15:04:18;35.00;60.30
37794;DHT22;23632;48.826;15.176;2023-08-24T15:06:45;35.10;60.30
37794;DHT22;23632;48.826;15.176;2023-08-24T15:09:12;35.10;60.20
37794;DHT22;23632;48.826;15.176;2023-08-24T15:11:39;35.10;60.20
37794;DHT22;23632;48.826;15.176;2023-08-24T15:14:06;35.10;60.10
37794;DHT22;23632;48.826;15.176;2023-08-24T15:16:34;35.20;60.10
37794;DHT22;23632;48.826;15.176;2023-08-24T15:19:01;35.20;60.10
37794;DHT22;23632;48.826;15.176;2023-08-24T15:21:28;35.20;60.00
37794;DHT22;23632;48.826;15.176;2023-08-24T15:23:56;35.20;60.00
37794;DHT22;23632;48.826;15.176;2023-08-24T15:26:23;35.30;59.90
37794;DHT22;23632;48.826;15.176;2023-08-24T15:31:40;35.30;59.80
37794;DHT22;23632;48.826;15.176;2023-08-24T15:34:08;35.30;59.70
37794;DHT22;23632;48.826;15.176;2023-08-24T15:36:35;35.30;59.70